Time;durP1;ratioP1;P1;durP2;ratioP2;P2;SDS_P1;SDS_P2;PMS_P1;PMS_P2;Temp;Humidity;BMP_temperature;BMP_pressure;BME280_temperature;BME280_humidity;BME280_pressure;Samples;Min_cycle;Max_cycle;Signal;HPM_P1;HPM_P2
2021/11/06 00:00:36;;;;;;;5.83;2.77;;;;;;;;;;4542787;28;20164;-57
2021/11/06 00:02:47;;;;;;;5.07;2.73;;;;;;;;;;4540462;28;23778;-57
2021/11/06 00:04:57;;;;;;;4.30;2.60;;;;;;;;;;4540100;28;20444;-57
2021/11/06 00:07:08;;;;;;;5.30;2.70;;;;;;;;;;4539701;28;20123;-57
2021/11/06 00:09:18;;;;;;;5.27;2.83;;;;;;;;;;4540045;28;20040;-57
2021/11/06 00:11:30;;;;;;;4.73;2.90;;;;;;;;;;4541916;28;20120;-57
2021/11/06 00:13:41;;;;;;;4.65;2.85;;;;;;;;;;4540450;28;20036;-57
2021/11/06 00:15:51;;;;;;;4.00;2.33;;;;;;;;;;4540599;28;20029;-57
2021/11/06 00:18:03;;;;;;;4.90;2.80;;;;;;;;;;4539205;28;20025;-57
2021/11/06 00:20:14;;;;;;;4.35;2.60;;;;;;;;;;4540440;28;20026;-57
2021/11/06 00:22:25;;;;;;;3.85;2.58;;;;;;;;;;4540972;28;20529;-56
2021/11/06 00:24:35;;;;;;;4.10;2.67;;;;;;;;;;4539381;28;20124;-57
2021/11/06 00:26:50;;;;;;;3.63;2.40;;;;;;;;;;4541437;28;20044;-59
2021/11/06 00:29:00;;;;;;;4.43;2.53;;;;;;;;;;4541069;28;20021;-57
2021/11/06 00:31:10;;;;;;;3.97;2.70;;;;;;;;;;4542945;28;20049;-56
2021/11/06 00:33:21;;;;;;;3.80;2.43;;;;;;;;;;4541348;28;20371;-57
2021/11/06 00:35:31;;;;;;;4.27;2.67;;;;;;;;;;4541452;28;20099;-56
2021/11/06 00:37:45;;;;;;;4.63;2.50;;;;;;;;;;4540201;28;20040;-57
2021/11/06 00:39:55;;;;;;;4.78;2.50;;;;;;;;;;4540471;28;20930;-56
2021/11/06 00:42:06;;;;;;;3.60;2.50;;;;;;;;;;4538561;28;20111;-56
2021/11/06 00:44:16;;;;;;;4.40;2.43;;;;;;;;;;4540356;28;20087;-57
2021/11/06 00:46:27;;;;;;;4.77;2.70;;;;;;;;;;4541112;28;20418;-57
2021/11/06 00:48:37;;;;;;;4.43;2.67;;;;;;;;;;4523775;28;20402;-56
2021/11/06 00:50:48;;;;;;;4.23;2.40;;;;;;;;;;4538227;28;20065;-56
2021/11/06 00:52:59;;;;;;;4.80;2.47;;;;;;;;;;4540048;28;20033;-56
2021/11/06 00:55:09;;;;;;;4.43;2.80;;;;;;;;;;4539866;28;20056;-57
2021/11/06 00:57:19;;;;;;;5.60;2.63;;;;;;;;;;4519399;28;20217;-57
2021/11/06 00:59:30;;;;;;;5.77;2.53;;;;;;;;;;4542490;28;20051;-57
2021/11/06 01:01:41;;;;;;;3.83;2.67;;;;;;;;;;4540052;28;20052;-57
2021/11/06 01:03:52;;;;;;;4.78;2.83;;;;;;;;;;4540874;28;20033;-56
2021/11/06 01:06:02;;;;;;;4.53;2.97;;;;;;;;;;4541196;28;20088;-56
2021/11/06 01:08:13;;;;;;;4.33;3.00;;;;;;;;;;4541023;28;20641;-56
2021/11/06 01:10:23;;;;;;;5.27;3.10;;;;;;;;;;4541026;28;20037;-56
2021/11/06 01:12:34;;;;;;;5.17;3.17;;;;;;;;;;4539126;28;20036;-57
2021/11/06 01:14:44;;;;;;;3.87;2.73;;;;;;;;;;4538729;28;20171;-57
2021/11/06 01:16:54;;;;;;;4.63;3.03;;;;;;;;;;4539517;28;20049;-56
2021/11/06 01:19:05;;;;;;;5.13;3.00;;;;;;;;;;4539682;28;20036;-56
2021/11/06 01:21:15;;;;;;;5.33;3.30;;;;;;;;;;4541802;28;20115;-56
2021/11/06 01:23:26;;;;;;;4.53;2.97;;;;;;;;;;4535671;28;28348;-56
2021/11/06 01:25:37;;;;;;;5.73;3.30;;;;;;;;;;4540461;28;20596;-57
2021/11/06 01:27:48;;;;;;;4.27;2.80;;;;;;;;;;4541339;28;20507;-57
2021/11/06 01:29:58;;;;;;;4.70;3.03;;;;;;;;;;4542859;28;20248;-57
2021/11/06 01:32:09;;;;;;;5.63;3.50;;;;;;;;;;4546432;28;20033;-58
2021/11/06 01:34:19;;;;;;;5.90;3.20;;;;;;;;;;4545340;28;20027;-57
2021/11/06 01:36:30;;;;;;;6.97;3.60;;;;;;;;;;4544981;28;20116;-57
2021/11/06 01:38:43;;;;;;;4.87;3.50;;;;;;;;;;4542726;28;20052;-57
2021/11/06 01:40:53;;;;;;;4.50;3.13;;;;;;;;;;4542471;28;20517;-59
2021/11/06 01:43:04;;;;;;;5.13;3.50;;;;;;;;;;4545392;28;20037;-58
2021/11/06 01:45:16;;;;;;;5.87;3.60;;;;;;;;;;4543611;28;20060;-58
2021/11/06 01:47:27;;;;;;;5.38;3.60;;;;;;;;;;4528625;28;20049;-58
2021/11/06 01:49:38;;;;;;;5.53;4.03;;;;;;;;;;4543709;28;20461;-59
2021/11/06 01:51:50;;;;;;;5.35;3.42;;;;;;;;;;4541039;28;20611;-57
2021/11/06 01:54:00;;;;;;;5.72;3.47;;;;;;;;;;4543146;28;20039;-58
2021/11/06 01:56:11;;;;;;;4.10;3.10;;;;;;;;;;4542246;28;21148;-58
2021/11/06 01:58:26;;;;;;;4.95;3.28;;;;;;;;;;4541385;28;20079;-58
2021/11/06 02:00:37;;;;;;;5.90;3.67;;;;;;;;;;4544393;28;20037;-57
2021/11/06 02:02:48;;;;;;;5.70;3.80;;;;;;;;;;4542298;28;20045;-58
2021/11/06 02:04:58;;;;;;;6.20;3.60;;;;;;;;;;4542267;28;20103;-58
2021/11/06 02:07:08;;;;;;;5.57;3.47;;;;;;;;;;4542011;28;20136;-57
2021/11/06 02:09:19;;;;;;;6.43;3.90;;;;;;;;;;4541619;28;32378;-57
2021/11/06 02:11:29;;;;;;;5.77;4.10;;;;;;;;;;4542987;28;20315;-57
2021/11/06 02:13:40;;;;;;;7.17;3.93;;;;;;;;;;4542947;28;20029;-58
2021/11/06 02:15:50;;;;;;;5.40;3.53;;;;;;;;;;4543623;28;20040;-57
2021/11/06 02:18:01;;;;;;;6.17;3.93;;;;;;;;;;4542990;28;20029;-57
2021/11/06 02:20:12;;;;;;;5.87;3.90;;;;;;;;;;4542072;28;20386;-57
2021/11/06 02:22:23;;;;;;;;;;;;;;;;;;4542538;28;20128;-58
2021/11/06 02:24:33;;;;;;;5.60;3.87;;;;;;;;;;4542288;28;26559;-58
2021/11/06 02:26:44;;;;;;;6.97;3.63;;;;;;;;;;4544897;28;21113;-57
2021/11/06 02:28:58;;;;;;;7.10;3.93;;;;;;;;;;4543055;28;20427;-58
2021/11/06 02:31:08;;;;;;;4.95;3.60;;;;;;;;;;4544613;28;21232;-58
2021/11/06 02:33:19;;;;;;;5.23;3.67;;;;;;;;;;4540509;28;20033;-58
2021/11/06 02:35:29;;;;;;;6.67;3.53;;;;;;;;;;4545451;28;20032;-58
2021/11/06 02:37:42;;;;;;;5.47;3.60;;;;;;;;;;4540046;28;25361;-58
2021/11/06 02:39:53;;;;;;;5.85;3.53;;;;;;;;;;4541843;28;21106;-57
2021/11/06 02:42:06;;;;;;;4.93;3.45;;;;;;;;;;4544477;28;20036;-58
2021/11/06 02:44:16;;;;;;;5.82;3.75;;;;;;;;;;4541761;28;20025;-58
2021/11/06 02:46:27;;;;;;;5.07;3.50;;;;;;;;;;4540974;28;33234;-58
2021/11/06 02:48:37;;;;;;;6.33;3.50;;;;;;;;;;4543079;28;20776;-58
2021/11/06 02:50:48;;;;;;;5.63;3.43;;;;;;;;;;4541565;28;20070;-58
2021/11/06 02:52:58;;;;;;;5.27;3.30;;;;;;;;;;4542861;28;20079;-57
2021/11/06 02:55:09;;;;;;;5.17;3.23;;;;;;;;;;4541190;28;20052;-58
2021/11/06 02:57:20;;;;;;;4.18;2.92;;;;;;;;;;4542999;28;20252;-58
2021/11/06 02:59:30;;;;;;;4.30;3.10;;;;;;;;;;4542128;28;20496;-58
2021/11/06 03:01:41;;;;;;;4.27;2.90;;;;;;;;;;4543637;28;20032;-58
2021/11/06 03:03:52;;;;;;;5.50;3.30;;;;;;;;;;4542552;28;20029;-58
2021/11/06 03:06:02;;;;;;;3.70;2.80;;;;;;;;;;4541485;28;20083;-58
2021/11/06 03:08:13;;;;;;;5.17;3.00;;;;;;;;;;4544802;28;20136;-58
2021/11/06 03:10:23;;;;;;;5.57;3.23;;;;;;;;;;4524825;28;20052;-57
2021/11/06 03:12:35;;;;;;;4.50;2.80;;;;;;;;;;4542280;28;20036;-58
2021/11/06 03:14:46;;;;;;;3.85;2.45;;;;;;;;;;4540739;28;20033;-58
2021/11/06 03:16:56;;;;;;;;;;;;;;;;;;4542019;28;20045;-58
2021/11/06 03:19:07;;;;;;;4.22;2.70;;;;;;;;;;4541759;28;19917;-57
2021/11/06 03:21:18;;;;;;;3.73;2.83;;;;;;;;;;4542684;28;20585;-58
2021/11/06 03:23:29;;;;;;;;;;;;;;;;;;4542042;28;20043;-58
2021/11/06 03:25:40;;;;;;;4.18;2.75;;;;;;;;;;4542214;28;19990;-58
2021/11/06 03:27:50;;;;;;;4.63;3.00;;;;;;;;;;4540755;28;20036;-58
2021/11/06 03:30:01;;;;;;;3.77;2.70;;;;;;;;;;4542761;28;20036;-58
2021/11/06 03:32:12;;;;;;;6.18;3.28;;;;;;;;;;4539947;28;20390;-58
2021/11/06 03:34:22;;;;;;;4.40;2.83;;;;;;;;;;4541396;28;20044;-57
2021/11/06 03:36:33;;;;;;;6.13;3.47;;;;;;;;;;4541654;28;20037;-57
2021/11/06 03:38:44;;;;;;;6.00;3.00;;;;;;;;;;4544905;28;20033;-58
2021/11/06 03:40:55;;;;;;;4.32;2.72;;;;;;;;;;4541864;28;20685;-58
2021/11/06 03:43:05;;;;;;;4.77;3.00;;;;;;;;;;4539762;28;20037;-58
2021/11/06 03:45:16;;;;;;;4.60;2.70;;;;;;;;;;4540960;28;20060;-57
2021/11/06 03:47:26;;;;;;;4.53;2.67;;;;;;;;;;4541136;28;20079;-57
2021/11/06 03:49:36;;;;;;;3.33;2.23;;;;;;;;;;4543655;28;20094;-58
2021/11/06 03:51:47;;;;;;;4.17;2.57;;;;;;;;;;4541438;28;20033;-58
2021/11/06 03:53:58;;;;;;;3.73;2.60;;;;;;;;;;4540520;28;20193;-58
2021/11/06 03:56:08;;;;;;;4.10;2.60;;;;;;;;;;4542192;28;20081;-58
2021/11/06 03:58:19;;;;;;;4.40;2.30;;;;;;;;;;4539963;28;20029;-57
2021/11/06 04:00:29;;;;;;;3.90;2.23;;;;;;;;;;4542914;28;20043;-58
2021/11/06 04:02:41;;;;;;;3.43;2.20;;;;;;;;;;4540468;28;20084;-57
2021/11/06 04:04:51;;;;;;;3.35;2.17;;;;;;;;;;4540138;28;20032;-57
2021/11/06 04:07:02;;;;;;;3.97;2.60;;;;;;;;;;4539721;28;20764;-57
2021/11/06 04:09:12;;;;;;;4.13;2.50;;;;;;;;;;4540760;28;20382;-58
2021/11/06 04:11:23;;;;;;;4.13;2.50;;;;;;;;;;4540868;28;29181;-58
2021/11/06 04:13:34;;;;;;;3.83;2.30;;;;;;;;;;4543773;28;20128;-57
2021/11/06 04:15:45;;;;;;;4.45;2.70;;;;;;;;;;4541733;28;20037;-58
2021/11/06 04:17:55;;;;;;;4.57;2.53;;;;;;;;;;4543732;28;20065;-58
2021/11/06 04:20:07;;;;;;;4.93;2.75;;;;;;;;;;4543306;28;20090;-57
2021/11/06 04:22:17;;;;;;;3.80;2.60;;;;;;;;;;4543095;28;20041;-58
2021/11/06 04:24:28;;;;;;;3.57;2.30;;;;;;;;;;4539266;28;20029;-58
2021/11/06 04:26:38;;;;;;;3.33;2.47;;;;;;;;;;4541050;28;20049;-58
2021/11/06 04:28:49;;;;;;;4.20;2.43;;;;;;;;;;4541498;28;20082;-57
2021/11/06 04:30:59;;;;;;;3.80;2.50;;;;;;;;;;4539059;28;20114;-57
2021/11/06 04:33:10;;;;;;;4.80;2.80;;;;;;;;;;4539636;28;20036;-57
2021/11/06 04:35:20;;;;;;;4.53;2.47;;;;;;;;;;4539230;28;20036;-58
2021/11/06 04:37:31;;;;;;;4.63;2.77;;;;;;;;;;4539549;28;20027;-58
2021/11/06 04:39:41;;;;;;;3.90;2.73;;;;;;;;;;4542654;28;20649;-58
2021/11/06 04:41:52;;;;;;;3.60;2.40;;;;;;;;;;4540882;28;20041;-57
2021/11/06 04:44:03;;;;;;;4.47;2.40;;;;;;;;;;4541017;28;20029;-57
2021/11/06 04:46:13;;;;;;;5.50;2.60;;;;;;;;;;4542460;28;20405;-58
2021/11/06 04:48:23;;;;;;;3.83;2.30;;;;;;;;;;4542756;28;20041;-58
2021/11/06 04:50:34;;;;;;;4.00;2.60;;;;;;;;;;4538896;28;32275;-58
2021/11/06 04:52:44;;;;;;;3.13;2.33;;;;;;;;;;4538202;28;34312;-59
2021/11/06 04:54:55;;;;;;;4.70;2.73;;;;;;;;;;4540881;28;20812;-57
2021/11/06 04:57:06;;;;;;;3.90;2.70;;;;;;;;;;4523510;28;20091;-58
2021/11/06 04:59:17;;;;;;;4.50;2.47;;;;;;;;;;4538722;28;20043;-58
2021/11/06 05:01:28;;;;;;;3.80;2.43;;;;;;;;;;4542026;28;20036;-58
2021/11/06 05:03:38;;;;;;;4.28;2.30;;;;;;;;;;4540335;28;20082;-58
2021/11/06 05:05:49;;;;;;;4.00;2.47;;;;;;;;;;4538578;28;37119;-58
2021/11/06 05:07:59;;;;;;;3.23;2.33;;;;;;;;;;4528236;28;20033;-58
2021/11/06 05:10:10;;;;;;;4.67;2.33;;;;;;;;;;4542613;28;20033;-58
2021/11/06 05:12:22;;;;;;;4.00;2.40;;;;;;;;;;4542326;28;20629;-58
2021/11/06 05:14:32;;;;;;;3.80;2.10;;;;;;;;;;4539796;28;20674;-58
2021/11/06 05:16:43;;;;;;;3.30;2.40;;;;;;;;;;4539723;28;20048;-58
2021/11/06 05:18:54;;;;;;;4.03;2.40;;;;;;;;;;4538493;28;20544;-58
2021/11/06 05:21:04;;;;;;;2.70;2.20;;;;;;;;;;4541680;28;20048;-58
2021/11/06 05:23:15;;;;;;;4.27;2.47;;;;;;;;;;4540820;28;20071;-58
2021/11/06 05:25:25;;;;;;;3.37;2.10;;;;;;;;;;4540306;28;20029;-58
2021/11/06 05:27:36;;;;;;;3.93;2.27;;;;;;;;;;4537815;28;20402;-58
2021/11/06 05:29:46;;;;;;;3.13;2.10;;;;;;;;;;4538178;28;20478;-58
2021/11/06 05:31:57;;;;;;;4.27;2.13;;;;;;;;;;4540610;28;20039;-57
2021/11/06 05:34:07;;;;;;;3.40;2.10;;;;;;;;;;4539722;28;20041;-58
2021/11/06 05:36:18;;;;;;;4.03;2.20;;;;;;;;;;4543109;28;20036;-57
2021/11/06 05:38:29;;;;;;;3.53;2.27;;;;;;;;;;4543815;28;20504;-59
2021/11/06 05:40:39;;;;;;;2.70;2.07;;;;;;;;;;4540661;28;20034;-57
2021/11/06 05:42:50;;;;;;;4.10;2.60;;;;;;;;;;4540178;28;20025;-58
2021/11/06 05:45:02;;;;;;;4.73;2.57;;;;;;;;;;4539247;28;20092;-57
2021/11/06 05:47:12;;;;;;;4.15;2.58;;;;;;;;;;4538755;28;20042;-58
2021/11/06 05:49:22;;;;;;;3.97;2.40;;;;;;;;;;4539429;28;20032;-57
2021/11/06 05:52:03;;;;;;;3.87;2.43;;;;;;;;;;4540278;28;20033;-59
2021/11/06 06:02:20;;;;;;;3.35;2.20;;;;;;;;;;4422927;28;20048;-58
2021/11/06 06:05:25;;;;;;;4.35;2.50;;;;;;;;;;4501521;28;20030;-58
2021/11/06 06:08:43;;;;;;;3.72;2.33;;;;;;;;;;4542285;28;20049;-58
2021/11/06 06:11:04;;;;;;;4.05;2.80;;;;;;;;;;4468994;28;20070;-57
2021/11/06 06:16:56;;;;;;;3.50;2.30;;;;;;;;;;4537559;28;20044;-57
2021/11/06 06:20:04;;;;;;;4.30;2.80;;;;;;;;;;4543480;28;20041;-57
2021/11/06 06:22:15;;;;;;;6.93;3.08;;;;;;;;;;4516504;28;20037;-57
2021/11/06 06:24:25;;;;;;;4.83;2.60;;;;;;;;;;4543614;28;20040;-58
2021/11/06 06:26:36;;;;;;;4.27;2.67;;;;;;;;;;4541875;28;20041;-57
2021/11/06 06:28:47;;;;;;;4.03;2.73;;;;;;;;;;4542543;28;20032;-58
2021/11/06 06:31:09;;;;;;;5.13;3.20;;;;;;;;;;4540535;28;20090;-58
2021/11/06 06:33:35;;;;;;;4.55;2.97;;;;;;;;;;4542263;28;20284;-58
2021/11/06 06:35:46;;;;;;;4.93;2.60;;;;;;;;;;4541315;28;20064;-58
2021/11/06 06:38:34;;;;;;;4.33;3.00;;;;;;;;;;4541534;28;20043;-58
2021/11/06 06:41:49;;;;;;;6.40;3.50;;;;;;;;;;4540243;28;20040;-57
2021/11/06 06:44:09;;;;;;;5.30;3.20;;;;;;;;;;4466900;28;20035;-59
2021/11/06 06:46:25;;;;;;;5.33;3.40;;;;;;;;;;4487093;28;20054;-62
2021/11/06 06:48:57;;;;;;;5.40;3.22;;;;;;;;;;4486326;28;20116;-58
2021/11/06 06:51:29;;;;;;;5.07;3.10;;;;;;;;;;4473756;28;20046;-58
2021/11/06 06:53:40;;;;;;;5.30;3.33;;;;;;;;;;4470778;28;20083;-58
2021/11/06 07:00:26;;;;;;;4.78;3.20;;;;;;;;;;4433579;28;20056;-57
2021/11/06 07:17:40;;;;;;;5.47;3.35;;;;;;;;;;4407565;28;20047;-57
2021/11/06 07:20:22;;;;;;;4.55;2.83;;;;;;;;;;4483541;28;20034;-58
2021/11/06 07:22:33;;;;;;;5.18;3.05;;;;;;;;;;4484327;28;20034;-57
2021/11/06 07:24:43;;;;;;;5.37;3.43;;;;;;;;;;4484402;28;20029;-57
2021/11/06 07:26:54;;;;;;;4.63;3.00;;;;;;;;;;4484051;28;20290;-57
2021/11/06 07:29:05;;;;;;;5.53;2.80;;;;;;;;;;4469539;28;20030;-57
2021/11/06 07:31:16;;;;;;;6.27;3.40;;;;;;;;;;4484059;28;20042;-57
2021/11/06 07:33:26;;;;;;;5.35;3.42;;;;;;;;;;4483989;28;20125;-57
2021/11/06 07:35:37;;;;;;;4.83;3.10;;;;;;;;;;4486354;28;20026;-57
2021/11/06 07:37:47;;;;;;;5.27;2.60;;;;;;;;;;4467700;28;20035;-57
2021/11/06 07:39:58;;;;;;;4.07;2.70;;;;;;;;;;4468241;28;20439;-57
2021/11/06 07:42:08;;;;;;;5.15;3.20;;;;;;;;;;4484991;28;20093;-57
2021/11/06 07:44:24;;;;;;;6.10;3.50;;;;;;;;;;4483180;28;20038;-57
2021/11/06 07:51:15;;;;;;;6.15;3.20;;;;;;;;;;4507285;28;20038;-57
2021/11/06 07:53:37;;;;;;;5.32;3.03;;;;;;;;;;4505839;28;20042;-57
2021/11/06 07:56:45;;;;;;;;;;;;;;;;;;;;;
2021/11/06 07:59:11;;;;;;;3.17;2.30;;;;;;;;;;4489313;28;20042;-57
2021/11/06 08:01:22;;;;;;;4.13;2.47;;;;;;;;;;4511385;28;20045;-57
2021/11/06 08:03:56;;;;;;;4.10;2.37;;;;;;;;;;4541999;28;20028;-57
2021/11/06 08:06:55;;;;;;;4.05;2.10;;;;;;;;;;4484069;28;20596;-56
2021/11/06 08:09:26;;;;;;;3.97;2.40;;;;;;;;;;4530322;28;20619;-56
2021/11/06 08:12:01;;;;;;;3.20;2.05;;;;;;;;;;4537948;28;20049;-57
2021/11/06 08:14:19;;;;;;;3.25;1.98;;;;;;;;;;4540311;28;20069;-57
2021/11/06 08:19:55;;;;;;;5.00;1.92;;;;;;;;;;4449250;28;20042;-57
2021/11/06 08:22:06;;;;;;;3.13;2.00;;;;;;;;;;4471194;28;20830;-57
2021/11/06 08:24:34;;;;;;;3.00;1.83;;;;;;;;;;4471228;28;20039;-57
2021/11/06 08:26:52;;;;;;;4.32;2.13;;;;;;;;;;4470275;28;20046;-58
2021/11/06 08:29:30;;;;;;;3.10;1.88;;;;;;;;;;4451453;28;20043;-57
2021/11/06 08:31:58;;;;;;;2.70;1.55;;;;;;;;;;4453320;28;20056;-57
2021/11/06 08:34:12;;;;;;;3.50;1.88;;;;;;;;;;4467330;28;20039;-57
2021/11/06 08:36:25;;;;;;;3.13;1.87;;;;;;;;;;4451990;28;20031;-57
2021/11/06 08:38:38;;;;;;;3.15;2.00;;;;;;;;;;4468607;28;20039;-57
2021/11/06 08:40:50;;;;;;;3.47;1.87;;;;;;;;;;4452085;28;20043;-57
2021/11/06 08:43:01;;;;;;;3.78;2.00;;;;;;;;;;4470521;28;20669;-57
2021/11/06 08:45:32;;;;;;;4.40;2.30;;;;;;;;;;4468423;28;20533;-57
2021/11/06 08:47:45;;;;;;;4.53;1.98;;;;;;;;;;4469028;28;21339;-57
2021/11/06 08:49:56;;;;;;;3.90;2.20;;;;;;;;;;4453061;28;20114;-57
2021/11/06 08:52:07;;;;;;;2.83;1.97;;;;;;;;;;4469735;28;20047;-57
2021/11/06 08:54:18;;;;;;;2.93;1.60;;;;;;;;;;4453150;28;20109;-58
2021/11/06 08:56:30;;;;;;;;;;;;;;;;;;4493412;28;20054;-58
2021/11/06 08:58:40;;;;;;;3.53;1.88;;;;;;;;;;4538877;28;19916;-58
2021/11/06 09:01:08;;;;;;;2.30;1.70;;;;;;;;;;4540201;28;20490;-58
2021/11/06 09:06:55;;;;;;;4.18;2.08;;;;;;;;;;4535686;28;20044;-57
2021/11/06 09:09:09;;;;;;;3.03;1.80;;;;;;;;;;4539412;28;20037;-57
2021/11/06 09:11:19;;;;;;;2.28;1.70;;;;;;;;;;4535909;28;20095;-58
2021/11/06 09:13:30;;;;;;;5.10;3.17;;;;;;;;;;4540123;28;20907;-57
2021/11/06 09:15:41;;;;;;;5.57;3.43;;;;;;;;;;4538128;28;20025;-57
2021/11/06 09:17:52;;;;;;;8.07;3.83;;;;;;;;;;4535916;28;20042;-58
2021/11/06 09:20:04;;;;;;;6.68;3.35;;;;;;;;;;4539634;28;20033;-58
2021/11/06 09:22:15;;;;;;;4.85;2.60;;;;;;;;;;4525289;28;20033;-57
2021/11/06 09:24:25;;;;;;;4.90;2.80;;;;;;;;;;4540809;28;20509;-58
2021/11/06 09:26:38;;;;;;;6.43;3.57;;;;;;;;;;4540866;28;20040;-57
2021/11/06 09:28:48;;;;;;;8.70;4.50;;;;;;;;;;4542104;28;20048;-58
2021/11/06 09:30:59;;;;;;;5.80;3.50;;;;;;;;;;4539033;28;20036;-58
2021/11/06 09:33:09;;;;;;;5.53;3.40;;;;;;;;;;4538434;28;20033;-58
2021/11/06 09:35:20;;;;;;;6.53;3.60;;;;;;;;;;4540373;28;20331;-58
2021/11/06 09:37:30;;;;;;;5.73;3.63;;;;;;;;;;4539153;28;20460;-57
2021/11/06 09:39:41;;;;;;;12.87;8.23;;;;;;;;;;4538434;28;20033;-58
2021/11/06 09:41:52;;;;;;;7.93;5.07;;;;;;;;;;4535574;28;20604;-58
2021/11/06 09:44:03;;;;;;;;;;;;;;;;;;4540005;28;20021;-58
2021/11/06 09:46:14;;;;;;;4.97;2.65;;;;;;;;;;4538973;28;19920;-58
2021/11/06 09:49:06;;;;;;;4.17;2.40;;;;;;;;;;4541585;28;20037;-57
2021/11/06 09:52:13;;;;;;;4.10;2.28;;;;;;;;;;4540135;28;20252;-57
2021/11/06 09:54:33;;;;;;;3.90;2.25;;;;;;;;;;4486310;28;20134;-57
2021/11/06 09:56:58;;;;;;;4.82;2.40;;;;;;;;;;4485752;28;20714;-58
2021/11/06 09:59:12;;;;;;;3.05;2.10;;;;;;;;;;4487251;28;20553;-57
2021/11/06 10:01:22;;;;;;;5.10;2.42;;;;;;;;;;4486238;28;20140;-58
2021/11/06 10:03:34;;;;;;;3.60;2.37;;;;;;;;;;4485675;28;20038;-58
2021/11/06 10:19:49;;;;;;;4.13;2.30;;;;;;;;;;4412919;28;20127;-58
2021/11/06 10:22:17;;;;;;;2.72;1.70;;;;;;;;;;4415846;28;20043;-58
2021/11/06 10:24:38;;;;;;;2.83;1.90;;;;;;;;;;4420043;28;20050;-57
2021/11/06 10:26:49;;;;;;;4.10;1.57;;;;;;;;;;4469506;28;21231;-57
2021/11/06 10:29:05;;;;;;;2.60;1.40;;;;;;;;;;4487204;28;20050;-58
2021/11/06 10:31:15;;;;;;;2.78;1.70;;;;;;;;;;4486071;28;21136;-57
2021/11/06 10:33:26;;;;;;;1.80;1.43;;;;;;;;;;4483876;28;20127;-58
2021/11/06 10:35:42;;;;;;;2.40;1.40;;;;;;;;;;4487487;28;20034;-57
2021/11/06 10:38:01;;;;;;;2.67;1.40;;;;;;;;;;4487436;28;20041;-57
2021/11/06 10:40:13;;;;;;;2.50;1.50;;;;;;;;;;4487789;28;20056;-58
2021/11/06 10:42:24;;;;;;;2.60;1.52;;;;;;;;;;4454193;28;20689;-58
2021/11/06 10:44:35;;;;;;;2.72;1.45;;;;;;;;;;4469937;28;20043;-58
2021/11/06 10:46:52;;;;;;;2.87;1.37;;;;;;;;;;4539699;28;20041;-58
2021/11/06 10:49:39;;;;;;;3.58;1.67;;;;;;;;;;4542175;28;20612;-58
2021/11/06 10:52:08;;;;;;;2.00;1.25;;;;;;;;;;4541738;28;20032;-58
2021/11/06 10:54:19;;;;;;;1.55;1.30;;;;;;;;;;4540813;28;20045;-58
2021/11/06 10:56:45;;;;;;;2.50;1.60;;;;;;;;;;4541107;28;20033;-58
2021/11/06 10:59:05;;;;;;;2.35;1.20;;;;;;;;;;4538220;28;20033;-57
2021/11/06 11:01:28;;;;;;;4.10;2.25;;;;;;;;;;4540232;28;20106;-58
2021/11/06 11:03:41;;;;;;;3.45;1.55;;;;;;;;;;4541991;28;20044;-58
2021/11/06 11:05:52;;;;;;;2.05;1.70;;;;;;;;;;4532798;28;20088;-58
2021/11/06 11:08:07;;;;;;;2.72;1.58;;;;;;;;;;4540689;28;20040;-58
2021/11/06 11:10:22;;;;;;;2.90;1.95;;;;;;;;;;4538939;28;20048;-58
2021/11/06 11:12:35;;;;;;;2.05;1.45;;;;;;;;;;4541327;28;20647;-58
2021/11/06 11:14:53;;;;;;;2.25;1.60;;;;;;;;;;4540413;28;20590;-57
2021/11/06 11:17:05;;;;;;;1.83;1.05;;;;;;;;;;4542150;28;20037;-57
2021/11/06 11:19:15;;;;;;;;;;;;;;;;;;4541575;28;20025;-58
2021/11/06 11:21:30;;;;;;;1.70;1.00;;;;;;;;;;4542127;28;19921;-58
2021/11/06 11:24:13;;;;;;;1.77;1.10;;;;;;;;;;4539534;28;20044;-58
2021/11/06 13:39:36;;;;;;;2.03;0.70;;;;;;;;;;4489953;28;20062;-58
2021/11/06 13:49:08;;;;;;;2.67;1.92;;;;;;;;;;4490865;28;20375;-58
2021/11/06 13:51:23;;;;;;;1.40;0.93;;;;;;;;;;4492947;28;20076;-58
2021/11/06 13:53:34;;;;;;;1.65;0.98;;;;;;;;;;4494508;28;20077;-57
2021/11/06 13:56:04;;;;;;;1.00;0.90;;;;;;;;;;4489358;28;20121;-57
2021/11/06 13:58:24;;;;;;;1.00;0.80;;;;;;;;;;4490792;28;20659;-56
2021/11/06 14:00:35;;;;;;;2.08;1.02;;;;;;;;;;4493126;28;20742;-56
2021/11/06 14:02:46;;;;;;;1.30;1.00;;;;;;;;;;4490252;28;20066;-56
2021/11/06 14:05:04;;;;;;;1.90;0.98;;;;;;;;;;4490268;28;20041;-58
2021/11/06 14:07:18;;;;;;;1.92;1.00;;;;;;;;;;4491873;28;20050;-56
2021/11/06 14:09:28;;;;;;;1.15;0.80;;;;;;;;;;4491884;28;20030;-56
2021/11/06 14:11:56;;;;;;;0.83;0.70;;;;;;;;;;4491263;28;20042;-55
2021/11/06 14:14:06;;;;;;;2.15;0.88;;;;;;;;;;4489731;28;20601;-56
2021/11/06 14:16:19;;;;;;;1.90;1.00;;;;;;;;;;4490371;28;20457;-57
2021/11/06 14:18:36;;;;;;;0.90;0.70;;;;;;;;;;4493072;28;20664;-57
2021/11/06 14:20:52;;;;;;;1.02;0.70;;;;;;;;;;4491288;28;21302;-57
2021/11/06 14:23:05;;;;;;;1.80;1.20;;;;;;;;;;4489676;28;20444;-57
2021/11/06 14:25:29;;;;;;;2.72;0.90;;;;;;;;;;4489940;28;21322;-57
2021/11/06 14:27:39;;;;;;;1.02;0.80;;;;;;;;;;4491762;28;20060;-57
2021/11/06 14:30:19;;;;;;;1.70;0.90;;;;;;;;;;4490323;28;20391;-57
2021/11/06 14:32:29;;;;;;;1.17;0.80;;;;;;;;;;4478190;28;20038;-57
2021/11/06 14:34:40;;;;;;;0.90;0.80;;;;;;;;;;4489840;28;20038;-59
2021/11/06 14:37:15;;;;;;;0.90;0.70;;;;;;;;;;4494404;28;20042;-58
2021/11/06 14:39:30;;;;;;;1.20;0.90;;;;;;;;;;4490929;28;20533;-58
2021/11/06 14:41:51;;;;;;;0.95;0.70;;;;;;;;;;4489839;28;20037;-58
2021/11/06 14:44:08;;;;;;;1.48;0.85;;;;;;;;;;4488613;28;20723;-58
2021/11/06 14:46:19;;;;;;;1.48;0.80;;;;;;;;;;4475054;28;20073;-58
2021/11/06 14:48:29;;;;;;;0.90;0.60;;;;;;;;;;4488423;28;20076;-58
2021/11/06 14:50:40;;;;;;;0.90;0.80;;;;;;;;;;4489599;28;20030;-58
2021/11/06 14:52:51;;;;;;;1.08;0.75;;;;;;;;;;4489551;28;20030;-58
2021/11/06 14:55:05;;;;;;;0.70;0.65;;;;;;;;;;4488998;28;20030;-58
2021/11/06 14:57:23;;;;;;;1.27;1.00;;;;;;;;;;4504089;28;20037;-58
2021/11/06 14:59:34;;;;;;;1.10;1.00;;;;;;;;;;4490008;28;20542;-58
2021/11/06 15:01:53;;;;;;;0.80;0.60;;;;;;;;;;4488963;28;20042;-58
2021/11/06 15:04:04;;;;;;;3.05;2.13;;;;;;;;;;4489276;28;20130;-58
2021/11/06 15:06:15;;;;;;;1.70;1.60;;;;;;;;;;4487109;28;20026;-58
2021/11/06 15:08:26;;;;;;;2.65;1.73;;;;;;;;;;4492255;28;20143;-58
2021/11/06 15:10:37;;;;;;;2.50;1.50;;;;;;;;;;4472777;28;20102;-58
2021/11/06 15:12:48;;;;;;;1.02;0.80;;;;;;;;;;4487133;28;21797;-58
2021/11/06 15:14:58;;;;;;;4.17;2.40;;;;;;;;;;4475481;28;20044;-58
2021/11/06 15:17:10;;;;;;;2.23;1.60;;;;;;;;;;4497433;28;20098;-58
2021/11/06 15:19:20;;;;;;;1.30;1.20;;;;;;;;;;4488500;28;20606;-58
2021/11/06 15:21:35;;;;;;;3.03;1.73;;;;;;;;;;4488944;28;20038;-58
2021/11/06 15:23:46;;;;;;;2.20;1.30;;;;;;;;;;4488181;28;20121;-58
2021/11/06 15:25:57;;;;;;;1.77;0.80;;;;;;;;;;4490967;28;20514;-57
2021/11/06 15:28:09;;;;;;;1.83;1.38;;;;;;;;;;4491527;28;20479;-58
2021/11/06 15:30:20;;;;;;;1.60;1.15;;;;;;;;;;4489600;28;20065;-58
2021/11/06 15:32:31;;;;;;;1.25;0.90;;;;;;;;;;4489400;28;20674;-58
2021/11/06 15:34:41;;;;;;;2.00;0.90;;;;;;;;;;4490719;28;20022;-58
2021/11/06 15:36:52;;;;;;;2.47;1.03;;;;;;;;;;4491360;28;20053;-58
2021/11/06 15:39:04;;;;;;;1.37;0.80;;;;;;;;;;4489392;28;20064;-58
2021/11/06 15:41:14;;;;;;;;;;;;;;;;;;4490946;28;20781;-58
2021/11/06 15:43:25;;;;;;;1.95;0.90;;;;;;;;;;4490679;28;19928;-58
2021/11/06 15:45:36;;;;;;;1.10;0.90;;;;;;;;;;4488536;28;20112;-58
2021/11/06 15:47:47;;;;;;;3.10;1.87;;;;;;;;;;4486785;28;20550;-58
2021/11/06 15:49:59;;;;;;;2.83;1.80;;;;;;;;;;4488618;28;20030;-58
2021/11/06 15:52:10;;;;;;;3.22;1.70;;;;;;;;;;4488515;28;20026;-58
2021/11/06 15:54:21;;;;;;;1.80;1.10;;;;;;;;;;4485571;28;20640;-58
2021/11/06 15:56:33;;;;;;;0.90;0.80;;;;;;;;;;4489442;28;20109;-58
2021/11/06 15:58:43;;;;;;;1.95;0.95;;;;;;;;;;4490631;28;20046;-58
2021/11/06 16:00:54;;;;;;;1.27;1.17;;;;;;;;;;4486448;28;28149;-58
2021/11/06 16:03:04;;;;;;;1.00;0.90;;;;;;;;;;4487214;28;20599;-58
2021/11/06 16:05:17;;;;;;;0.80;0.80;;;;;;;;;;4488257;28;20282;-58
2021/11/06 16:07:27;;;;;;;0.85;0.80;;;;;;;;;;4489380;28;20128;-58
2021/11/06 16:09:38;;;;;;;1.50;0.77;;;;;;;;;;4493592;28;20145;-58
2021/11/06 16:11:48;;;;;;;1.07;0.80;;;;;;;;;;4488488;28;20141;-58
2021/11/06 16:13:58;;;;;;;1.33;0.93;;;;;;;;;;4489789;28;20626;-58
2021/11/06 16:16:12;;;;;;;1.30;0.83;;;;;;;;;;4489048;28;20030;-58
2021/11/06 16:18:28;;;;;;;1.33;1.00;;;;;;;;;;4487125;28;20104;-58
2021/11/06 16:20:45;;;;;;;1.80;1.02;;;;;;;;;;4491875;28;20022;-58
2021/11/06 16:22:56;;;;;;;1.80;0.90;;;;;;;;;;4474748;28;20018;-58
2021/11/06 16:25:06;;;;;;;1.88;0.90;;;;;;;;;;4473680;28;20023;-58
2021/11/06 16:27:17;;;;;;;1.10;1.00;;;;;;;;;;4486294;28;20042;-59
2021/11/06 16:29:27;;;;;;;1.73;1.03;;;;;;;;;;4490098;28;20471;-58
2021/11/06 16:31:38;;;;;;;1.03;0.77;;;;;;;;;;4490116;28;20030;-58
2021/11/06 16:33:50;;;;;;;1.27;0.87;;;;;;;;;;4488445;28;21263;-58
2021/11/06 16:36:04;;;;;;;1.05;0.95;;;;;;;;;;4496119;28;20252;-58
2021/11/06 16:38:14;;;;;;;2.15;1.00;;;;;;;;;;4489303;28;20018;-59
2021/11/06 16:40:25;;;;;;;1.07;0.87;;;;;;;;;;4486142;28;20026;-59
2021/11/06 16:42:37;;;;;;;1.40;0.80;;;;;;;;;;4488916;28;20856;-58
2021/11/06 16:44:47;;;;;;;0.82;0.70;;;;;;;;;;4488269;28;20222;-58